createdAt,value
2019-03-05T00:01:26.318Z,98866.39
2019-03-05T00:03:57.873Z,98873.87
2019-03-05T00:06:29.850Z,98875.97
2019-03-05T00:09:01.767Z,98869.08
2019-03-05T00:11:34.955Z,98880.37
2019-03-05T00:14:06.471Z,98873.98
2019-03-05T00:16:39.055Z,98873.94
2019-03-05T00:19:10.635Z,98890.34
2019-03-05T00:21:42.148Z,98896.28
2019-03-05T00:24:58.044Z,98889.91
2019-03-05T00:27:31.051Z,98883.25
2019-03-05T00:30:35.471Z,98889.96
2019-03-05T00:33:28.778Z,98891.50
2019-03-05T00:36:14.738Z,98886.66
2019-03-05T00:39:22.295Z,98896.08
2019-03-05T00:42:07.218Z,98893.17
2019-03-05T00:45:25.410Z,98895.47
2019-03-05T00:48:41.262Z,98885.19
2019-03-05T00:51:47.486Z,98894.19
2019-03-05T00:54:38.983Z,98905.20
2019-03-05T00:57:39.760Z,98913.13
2019-03-05T01:00:43.220Z,98921.61
2019-03-05T01:03:51.383Z,98918.88
2019-03-05T01:06:25.579Z,98918.47
2019-03-05T01:08:58.095Z,98919.19
2019-03-05T01:11:29.630Z,98927.23
2019-03-05T01:14:01.371Z,98925.25
2019-03-05T01:16:35.597Z,98929.45
2019-03-05T01:19:07.397Z,98935.84
2019-03-05T01:21:38.997Z,98945.16
2019-03-05T01:24:10.511Z,98938.00
2019-03-05T01:26:42.030Z,98947.95
2019-03-05T01:29:13.649Z,98948.20
2019-03-05T01:31:46.976Z,98950.81
2019-03-05T01:34:20.196Z,98957.58
2019-03-05T01:36:59.758Z,98951.16
2019-03-05T01:39:33.831Z,98969.67
2019-03-05T01:42:07.174Z,98964.34
2019-03-05T01:44:39.969Z,98961.14
2019-03-05T01:47:11.582Z,98965.76
2019-03-05T01:49:43.406Z,98967.84
2019-03-05T01:52:15.784Z,98973.16
2019-03-05T01:54:47.585Z,98971.12
2019-03-05T01:57:19.148Z,98970.45
2019-03-05T01:59:50.651Z,98963.25
2019-03-05T02:02:22.244Z,98976.03
2019-03-05T02:04:54.140Z,98972.83
2019-03-05T02:07:26.150Z,98993.34
2019-03-05T02:09:57.712Z,98987.68
2019-03-05T02:12:29.265Z,98991.16
2019-03-05T02:15:00.947Z,98990.23
2019-03-05T02:17:32.826Z,98989.44
2019-03-05T02:20:08.271Z,98988.08
2019-03-05T02:22:40.007Z,99001.81
2019-03-05T02:25:28.349Z,98995.75
2019-03-05T02:28:33.340Z,99016.54
2019-03-05T02:31:43.251Z,98997.22
2019-03-05T02:34:47.778Z,98998.02
2019-03-05T02:37:36.214Z,98999.28
2019-03-05T02:40:21.434Z,98994.71
2019-03-05T02:43:03.711Z,98997.73
2019-03-05T02:45:51.893Z,99005.20
2019-03-05T02:48:53.647Z,99010.86
2019-03-05T02:52:03.349Z,99010.47
2019-03-05T02:55:08.106Z,99024.42
2019-03-05T02:57:39.389Z,99016.00
2019-03-05T03:00:13.003Z,99020.57
2019-03-05T03:02:46.217Z,99024.19
2019-03-05T03:05:19.373Z,99025.42
2019-03-05T03:07:51.133Z,99015.97
2019-03-05T03:10:25.319Z,99020.48
2019-03-05T03:12:57.036Z,99026.45
2019-03-05T03:15:28.602Z,99021.10
2019-03-05T03:18:00.188Z,99032.94
2019-03-05T03:20:31.707Z,99033.48
2019-03-05T03:23:03.239Z,99030.70
2019-03-05T03:25:34.789Z,99026.20
2019-03-05T03:28:06.365Z,99024.96
2019-03-05T03:30:38.183Z,99026.83
2019-03-05T03:33:09.807Z,99025.89
2019-03-05T03:35:41.394Z,99027.13
2019-03-05T03:38:13.369Z,99036.12
2019-03-05T03:40:45.422Z,99022.88
2019-03-05T03:43:16.937Z,99025.70
2019-03-05T03:45:48.453Z,99028.25
2019-03-05T03:48:20.023Z,99033.56
2019-03-05T03:50:51.683Z,99031.66
2019-03-05T03:53:23.217Z,99036.31
2019-03-05T03:55:54.962Z,99046.19
2019-03-05T03:58:26.607Z,99044.20
2019-03-05T04:00:58.347Z,99039.06
2019-03-05T04:03:31.612Z,99036.66
2019-03-05T04:06:03.635Z,99039.44
2019-03-05T04:08:35.199Z,99047.38
2019-03-05T04:11:06.738Z,99046.91
2019-03-05T04:13:38.470Z,99050.69
2019-03-05T04:16:10.036Z,99060.62
2019-03-05T04:18:41.609Z,99065.52
2019-03-05T04:21:13.570Z,99064.81
2019-03-05T04:23:45.331Z,99061.34
2019-03-05T04:26:16.835Z,99063.88
2019-03-05T04:28:48.338Z,99064.02
2019-03-05T04:31:19.948Z,99068.19
2019-03-05T04:33:51.471Z,99071.75
2019-03-05T04:36:23.529Z,99070.58
2019-03-05T04:38:55.121Z,99067.58
2019-03-05T04:41:26.774Z,99079.53
2019-03-05T04:43:59.418Z,99079.41
2019-03-05T04:46:30.766Z,99083.42
2019-03-05T04:49:18.495Z,99069.86
2019-03-05T04:51:53.120Z,99070.42
2019-03-05T04:54:24.747Z,99075.12
2019-03-05T04:56:56.340Z,99081.43
2019-03-05T04:59:28.065Z,99076.88
2019-03-05T05:01:59.548Z,99083.25
2019-03-05T05:04:31.192Z,99089.78
2019-03-05T05:07:03.174Z,99088.34
2019-03-05T05:09:34.782Z,99090.90
2019-03-05T05:12:06.319Z,99093.70
2019-03-05T05:14:38.095Z,99088.91
2019-03-05T05:17:09.644Z,99081.82
2019-03-05T05:19:41.445Z,99080.41
2019-03-05T05:22:12.955Z,99076.47
2019-03-05T05:24:45.521Z,99074.97
2019-03-05T05:27:17.088Z,99074.19
2019-03-05T05:29:48.612Z,99078.92
2019-03-05T05:32:20.217Z,99074.64
2019-03-05T05:34:51.890Z,99081.43
2019-03-05T05:37:23.544Z,99075.62
2019-03-05T05:40:29.076Z,99072.45
2019-03-05T05:43:00.792Z,99072.30
2019-03-05T05:45:37.546Z,99080.31
2019-03-05T05:48:09.182Z,99073.08
2019-03-05T05:50:40.874Z,99078.92
2019-03-05T05:53:12.472Z,99079.45
2019-03-05T05:55:44.214Z,99091.99
2019-03-05T05:58:15.866Z,99082.23
2019-03-05T06:00:49.220Z,99084.50
2019-03-05T06:03:20.805Z,99091.37
2019-03-05T06:05:52.382Z,99091.92
2019-03-05T06:08:23.984Z,99095.59
2019-03-05T06:10:55.587Z,99103.50
2019-03-05T06:13:27.694Z,99094.42
2019-03-05T06:15:59.476Z,99103.38
2019-03-05T06:18:31.058Z,99091.10
2019-03-05T06:21:02.837Z,99097.09
2019-03-05T06:23:34.478Z,99102.04
2019-03-05T06:26:08.553Z,99093.70
2019-03-05T06:28:39.719Z,99100.47
2019-03-05T06:31:11.632Z,99094.64
2019-03-05T06:33:43.363Z,99105.75
2019-03-05T06:36:15.084Z,99099.78
2019-03-05T06:38:47.016Z,99098.59
2019-03-05T06:41:18.919Z,99090.70
2019-03-05T06:43:50.579Z,99106.53
2019-03-05T06:46:22.356Z,99113.31
2019-03-05T06:48:54.144Z,99111.72
2019-03-05T06:51:25.909Z,99124.09
2019-03-05T06:53:57.691Z,99124.64
2019-03-05T06:56:29.466Z,99108.17
2019-03-05T06:59:01.160Z,99115.91
2019-03-05T07:01:32.969Z,99107.61
2019-03-05T07:04:04.712Z,99113.75
2019-03-05T07:06:55.803Z,99112.39
2019-03-05T07:09:56.817Z,99106.42
2019-03-05T07:12:44.643Z,99111.39
2019-03-05T07:15:44.686Z,99109.10
2019-03-05T07:18:30.321Z,99100.03
2019-03-05T07:21:28.166Z,99119.59
2019-03-05T07:24:21.939Z,99120.44
2019-03-05T07:26:54.403Z,99126.08
2019-03-05T07:29:26.007Z,99115.73
2019-03-05T07:31:57.518Z,99123.81
2019-03-05T07:34:30.807Z,99125.55
2019-03-05T07:37:02.413Z,99119.90
2019-03-05T07:39:34.428Z,99128.69
2019-03-05T07:42:05.940Z,99136.81
2019-03-05T07:44:37.440Z,99132.19
2019-03-05T07:47:08.959Z,99134.63
2019-03-05T07:49:44.078Z,99136.06
2019-03-05T07:52:13.778Z,99147.92
2019-03-05T07:54:46.413Z,99158.92
2019-03-05T07:57:17.907Z,99170.94
2019-03-05T07:59:49.495Z,99150.60
2019-03-05T08:02:21.069Z,99163.88
2019-03-05T08:04:52.671Z,99167.05
2019-03-05T08:07:24.285Z,99180.64
2019-03-05T08:09:59.650Z,99178.98
2019-03-05T08:12:57.384Z,99180.23
2019-03-05T08:16:02.734Z,99184.40
2019-03-05T08:18:32.967Z,99190.95
2019-03-05T08:21:04.904Z,99191.41
2019-03-05T08:23:36.645Z,99192.30
2019-03-05T08:26:08.358Z,99200.84
2019-03-05T08:28:40.014Z,99201.95
2019-03-05T08:31:13.076Z,99202.41
2019-03-05T08:33:44.900Z,99216.97
2019-03-05T08:36:16.757Z,99216.19
2019-03-05T08:38:49.356Z,99215.36
2019-03-05T08:41:21.368Z,99238.68
2019-03-05T08:43:54.297Z,99222.33
2019-03-05T08:46:27.196Z,99229.05
2019-03-05T08:48:58.931Z,99246.89
2019-03-05T08:51:30.857Z,99235.69
2019-03-05T08:54:02.528Z,99248.28
2019-03-05T08:56:34.425Z,99244.52
2019-03-05T08:59:06.235Z,99260.34
2019-03-05T09:01:38.426Z,99255.09
2019-03-05T09:04:10.649Z,99257.69
2019-03-05T09:06:42.333Z,99259.84
2019-03-05T09:09:15.431Z,99257.19
2019-03-05T09:11:47.830Z,99270.83
2019-03-05T09:14:19.506Z,99282.59
2019-03-05T09:16:51.508Z,99274.81
2019-03-05T09:19:23.830Z,99272.73
2019-03-05T09:21:55.398Z,99276.97
2019-03-05T09:24:27.067Z,99276.97
2019-03-05T09:26:59.115Z,99279.52
2019-03-05T09:29:31.133Z,99282.38
2019-03-05T09:32:02.824Z,99280.39
2019-03-05T09:34:34.689Z,99287.14
2019-03-05T09:37:06.531Z,99281.32
2019-03-05T09:39:38.405Z,99280.99
2019-03-05T09:42:10.204Z,99271.90
2019-03-05T09:44:41.885Z,99284.81
2019-03-05T09:47:13.817Z,99273.64
2019-03-05T09:49:45.806Z,99281.31
2019-03-05T09:52:17.628Z,99290.92
2019-03-05T09:54:49.535Z,99303.64
2019-03-05T09:57:21.272Z,99301.61
2019-03-05T09:59:53.137Z,99294.58
2019-03-05T10:02:24.978Z,99306.03
2019-03-05T10:04:57.045Z,99302.84
2019-03-05T10:07:29.107Z,99314.73
2019-03-05T10:10:00.905Z,99320.38
2019-03-05T10:12:33.719Z,99334.25
2019-03-05T10:15:10.060Z,99311.21
2019-03-05T10:17:41.849Z,99338.29
2019-03-05T10:20:24.134Z,99338.86
2019-03-05T10:22:57.915Z,99338.72
2019-03-05T10:25:29.543Z,99348.66
2019-03-05T10:28:01.273Z,99344.56
2019-03-05T10:30:46.358Z,99345.02
2019-03-05T10:33:18.565Z,99348.33
2019-03-05T10:35:50.270Z,99336.83
2019-03-05T10:38:22.002Z,99341.31
2019-03-05T10:40:57.819Z,99339.94
2019-03-05T10:43:29.784Z,99339.10
2019-03-05T10:46:01.603Z,99346.41
2019-03-05T10:48:33.356Z,99342.33
2019-03-05T10:51:06.326Z,99352.90
2019-03-05T10:53:38.264Z,99352.98
2019-03-05T10:56:10.065Z,99364.91
2019-03-05T10:58:41.832Z,99358.28
2019-03-05T11:01:13.755Z,99368.08
2019-03-05T11:06:24.660Z,99362.98
2019-03-05T11:08:56.667Z,99363.55
2019-03-05T11:11:28.461Z,99362.27
2019-03-05T11:14:00.147Z,99366.27
2019-03-05T11:16:31.855Z,99366.16
2019-03-05T11:19:03.699Z,99375.66
2019-03-05T11:21:35.558Z,99367.33
2019-03-05T11:24:08.644Z,99384.42
2019-03-05T11:26:40.289Z,99373.28
2019-03-05T11:29:12.101Z,99380.47
2019-03-05T11:31:43.808Z,99387.83
2019-03-05T11:34:15.587Z,99381.05
2019-03-05T11:36:47.234Z,99387.70
2019-03-05T11:39:19.103Z,99381.73
2019-03-05T11:41:50.868Z,99374.06
2019-03-05T11:44:22.601Z,99365.80
2019-03-05T11:46:54.544Z,99384.32
2019-03-05T11:49:26.377Z,99373.30
2019-03-05T11:51:58.103Z,99371.56
2019-03-05T11:54:29.897Z,99383.48
2019-03-05T11:57:01.821Z,99382.94
2019-03-05T11:59:33.487Z,99377.56
2019-03-05T12:02:05.479Z,99379.30
2019-03-05T12:04:37.467Z,99370.27
2019-03-05T12:07:09.147Z,99380.62
2019-03-05T12:09:40.751Z,99377.25
2019-03-05T12:12:12.467Z,99380.80
2019-03-05T12:14:44.267Z,99376.41
2019-03-05T12:17:16.118Z,99388.73
2019-03-05T12:19:47.874Z,99379.09
2019-03-05T12:22:20.238Z,99388.95
2019-03-05T12:24:51.953Z,99382.77
2019-03-05T12:27:23.759Z,99384.70
2019-03-05T12:29:55.361Z,99398.67
2019-03-05T12:32:28.358Z,99391.59
2019-03-05T12:35:00.482Z,99449.34
2019-03-05T12:37:32.115Z,99519.61
2019-03-05T12:40:04.909Z,99519.38
2019-03-05T12:42:36.561Z,99515.63
2019-03-05T12:45:11.738Z,99516.08
2019-03-05T12:47:43.742Z,99509.89
2019-03-05T12:50:21.781Z,99515.87
2019-03-05T12:52:54.843Z,99517.20
2019-03-05T12:55:26.661Z,99515.75
2019-03-05T12:57:58.557Z,99509.92
2019-03-05T13:00:33.585Z,99512.39
2019-03-05T13:03:05.434Z,99506.91
2019-03-05T13:05:37.292Z,99516.05
2019-03-05T13:08:09.064Z,99517.73
2019-03-05T13:10:40.927Z,99519.77
2019-03-05T13:13:13.952Z,99522.97
2019-03-05T13:15:46.022Z,99527.48
2019-03-05T13:18:17.872Z,99526.47
2019-03-05T13:20:49.780Z,99531.31
2019-03-05T13:23:22.203Z,99533.02
2019-03-05T13:25:53.760Z,99536.67
2019-03-05T13:28:25.542Z,99532.50
2019-03-05T13:31:00.370Z,99525.89
2019-03-05T13:33:33.595Z,99527.84
2019-03-05T13:36:05.092Z,99533.88
2019-03-05T13:38:41.850Z,99533.08
2019-03-05T13:41:15.586Z,99531.84
2019-03-05T13:43:46.800Z,99531.84
2019-03-05T13:46:21.922Z,99532.30
2019-03-05T13:49:02.630Z,99532.02
2019-03-05T13:51:48.109Z,99540.64
2019-03-05T13:54:36.830Z,99537.38
2019-03-05T13:57:51.339Z,99538.70
2019-03-05T14:00:23.207Z,99531.42
2019-03-05T14:03:17.779Z,99527.83
2019-03-05T14:06:15.293Z,99542.03
2019-03-05T14:09:14.949Z,99535.81
2019-03-05T14:11:48.953Z,99517.65
2019-03-05T14:14:23.170Z,99544.83
2019-03-05T14:17:02.893Z,99536.52
2019-03-05T14:19:34.814Z,99542.20
2019-03-05T14:22:06.601Z,99542.33
2019-03-05T14:24:38.545Z,99544.41
2019-03-05T14:27:10.071Z,99557.02
2019-03-05T14:29:41.929Z,99548.85
2019-03-05T14:32:13.748Z,99554.50
2019-03-05T14:34:50.314Z,99561.01
2019-03-05T14:37:22.160Z,99553.40
2019-03-05T14:39:53.959Z,99558.63
2019-03-05T14:42:25.670Z,99558.84
2019-03-05T14:44:57.527Z,99553.86
2019-03-05T14:47:29.310Z,99563.91
2019-03-05T14:50:01.290Z,99557.80
2019-03-05T14:52:33.087Z,99560.95
2019-03-05T14:55:09.681Z,99563.03
2019-03-05T14:57:41.380Z,99560.78
2019-03-05T15:00:18.308Z,99562.27
2019-03-05T15:02:50.011Z,99566.17
2019-03-05T15:05:22.011Z,99569.08
2019-03-05T15:07:53.606Z,99564.89
2019-03-05T15:10:25.813Z,99560.93
2019-03-05T15:12:57.564Z,99555.95
2019-03-05T15:15:31.964Z,99560.28
2019-03-05T15:18:03.679Z,99563.53
2019-03-05T15:20:35.516Z,99562.44
2019-03-05T15:23:08.475Z,99559.49
2019-03-05T15:25:40.083Z,99560.42
2019-03-05T15:28:11.729Z,99565.16
2019-03-05T15:30:49.317Z,99557.31
2019-03-05T15:33:23.972Z,99570.80
2019-03-05T15:35:56.419Z,99572.08
2019-03-05T15:38:43.564Z,99565.05
2019-03-05T15:41:46.011Z,99580.78
2019-03-05T15:44:21.959Z,99568.60
2019-03-05T15:46:55.891Z,99570.19
2019-03-05T15:50:17.246Z,99577.70
2019-03-05T15:53:00.582Z,99584.34
2019-03-05T15:55:34.108Z,99589.55
2019-03-05T15:58:06.354Z,99588.14
2019-03-05T16:00:37.939Z,99592.41
2019-03-05T16:03:09.581Z,99594.00
2019-03-05T16:05:41.311Z,99593.19
2019-03-05T16:08:12.947Z,99594.23
2019-03-05T16:10:44.553Z,99591.28
2019-03-05T16:13:19.326Z,99590.42
2019-03-05T16:15:49.439Z,99603.71
2019-03-05T16:18:21.019Z,99604.59
2019-03-05T16:20:52.927Z,99625.92
2019-03-05T16:23:28.466Z,99650.81
2019-03-05T16:25:58.884Z,99652.53
2019-03-05T16:28:30.467Z,99658.34
2019-03-05T16:31:03.605Z,99650.56
2019-03-05T16:33:38.537Z,99652.86
2019-03-05T16:36:29.126Z,99649.09
2019-03-05T16:39:02.802Z,99653.66
2019-03-05T16:41:57.387Z,99662.62
2019-03-05T16:44:33.177Z,99669.94
2019-03-05T16:47:18.902Z,99670.16
2019-03-05T16:50:08.392Z,99668.79
2019-03-05T16:52:47.391Z,99675.77
2019-03-05T16:55:21.456Z,99688.02
2019-03-05T16:57:55.912Z,99697.56
2019-03-05T17:00:48.951Z,99701.45
2019-03-05T17:03:21.112Z,99709.77
2019-03-05T17:05:54.611Z,99711.77
2019-03-05T17:08:33.914Z,99715.94
2019-03-05T17:11:05.327Z,99727.98
2019-03-05T17:13:37.007Z,99732.48
2019-03-05T17:16:08.752Z,99734.03
2019-03-05T17:18:40.738Z,99747.55
2019-03-05T17:21:12.330Z,99749.69
2019-03-05T17:23:46.792Z,99750.37
2019-03-05T17:26:18.575Z,99752.80
2019-03-05T17:28:50.506Z,99754.01
2019-03-05T17:31:22.271Z,99749.83
2019-03-05T17:33:55.208Z,99764.38
2019-03-05T17:36:28.584Z,99762.30
2019-03-05T17:39:01.991Z,99762.97
2019-03-05T17:41:35.276Z,99757.85
2019-03-05T17:44:07.190Z,99767.51
2019-03-05T17:46:41.863Z,99764.80
2019-03-05T17:49:15.490Z,99766.30
2019-03-05T17:51:47.086Z,99765.79
2019-03-05T17:54:18.771Z,99765.79
2019-03-05T17:56:50.446Z,99783.91
2019-03-05T17:59:22.275Z,99780.39
2019-03-05T18:01:54.030Z,99784.09
2019-03-05T18:04:25.742Z,99785.84
2019-03-05T18:06:59.477Z,99783.51
2019-03-05T18:09:31.181Z,99792.09
2019-03-05T18:12:02.951Z,99799.92
2019-03-05T18:14:34.614Z,99797.83
2019-03-05T18:17:06.199Z,99795.27
2019-03-05T18:19:39.673Z,99805.18
2019-03-05T18:22:11.285Z,99800.27
2019-03-05T18:24:42.996Z,99806.29
2019-03-05T18:27:16.062Z,99804.06
2019-03-05T18:29:48.133Z,99807.55
2019-03-05T18:32:20.803Z,99815.61
2019-03-05T18:34:52.553Z,99820.21
2019-03-05T18:37:24.234Z,99829.18
2019-03-05T18:39:55.819Z,99835.62
2019-03-05T18:42:27.469Z,99841.05
2019-03-05T18:44:59.509Z,99844.25
2019-03-05T18:47:32.188Z,99846.52
2019-03-05T18:50:10.003Z,99862.41
2019-03-05T18:52:42.640Z,99877.47
2019-03-05T18:55:17.862Z,99891.46
2019-03-05T18:57:50.590Z,99894.02
2019-03-05T19:00:34.477Z,99906.05
2019-03-05T19:03:13.560Z,99916.77
2019-03-05T19:05:46.576Z,99894.94
2019-03-05T19:08:19.302Z,99892.05
2019-03-05T19:10:51.811Z,99899.82
2019-03-05T19:13:23.783Z,99901.52
2019-03-05T19:15:57.802Z,99907.49
2019-03-05T19:18:30.534Z,99909.07
2019-03-05T19:21:03.561Z,99909.55
2019-03-05T19:23:35.209Z,99911.43
2019-03-05T19:26:07.911Z,99912.36
2019-03-05T19:28:39.972Z,99911.88
2019-03-05T19:31:11.825Z,99914.91
2019-03-05T19:33:43.823Z,99920.51
2019-03-05T19:36:15.561Z,99922.25
2019-03-05T19:38:47.732Z,99925.98
2019-03-05T19:41:40.117Z,99932.03
2019-03-05T19:44:13.605Z,99933.52
2019-03-05T19:46:45.223Z,99944.25
2019-03-05T19:49:21.793Z,99944.30
2019-03-05T19:54:49.324Z,99956.05
2019-03-05T19:57:20.983Z,99960.34
2019-03-05T19:59:52.720Z,99955.32
2019-03-05T20:02:24.390Z,99962.73
2019-03-05T20:04:55.994Z,99975.29
2019-03-05T20:07:30.816Z,99975.80
2019-03-05T20:10:05.201Z,99977.66
2019-03-05T20:12:54.978Z,99974.19
2019-03-05T20:15:28.343Z,99984.69
2019-03-05T20:18:02.021Z,99983.30
2019-03-05T20:20:35.395Z,99989.73
2019-03-05T20:23:07.030Z,99994.72
2019-03-05T20:25:38.800Z,100010.25
2019-03-05T20:28:11.478Z,100015.53
2019-03-05T20:30:43.111Z,100019.72
2019-03-05T20:33:14.840Z,100012.11
2019-03-05T20:35:49.294Z,100027.09
2019-03-05T20:38:21.039Z,100030.53
2019-03-05T20:40:53.642Z,100034.63
2019-03-05T20:43:25.407Z,100039.09
2019-03-05T20:46:04.982Z,100046.85
2019-03-05T20:48:37.158Z,100053.47
2019-03-05T20:51:09.890Z,100060.23
2019-03-05T20:53:41.570Z,100063.50
2019-03-05T20:56:14.233Z,100069.34
2019-03-05T20:58:46.242Z,100076.03
2019-03-05T21:01:19.937Z,100084.58
2019-03-05T21:06:41.038Z,100094.23
2019-03-05T21:09:21.472Z,100098.80
2019-03-05T21:11:53.113Z,100100.69
2019-03-05T21:14:25.731Z,100104.30
2019-03-05T21:16:57.364Z,100119.73
2019-03-05T21:19:29.105Z,100106.29
2019-03-05T21:22:00.711Z,100112.13
2019-03-05T21:24:32.297Z,100120.32
2019-03-05T21:27:03.882Z,100127.28
2019-03-05T21:29:35.903Z,100131.84
2019-03-05T21:32:07.645Z,100128.52
2019-03-05T21:34:39.435Z,100133.03
2019-03-05T21:37:11.043Z,100141.84
2019-03-05T21:39:42.819Z,100153.34
2019-03-05T21:42:14.541Z,100157.86
2019-03-05T21:44:46.247Z,100167.09
2019-03-05T21:47:18.042Z,100168.22
2019-03-05T21:49:49.566Z,100174.12
2019-03-05T21:52:21.160Z,100177.59
2019-03-05T21:54:53.338Z,100177.72
2019-03-05T21:57:26.034Z,100186.50
2019-03-05T21:59:57.674Z,100181.88
2019-03-05T22:02:29.287Z,100183.02
2019-03-05T22:05:01.173Z,100192.90
2019-03-05T22:07:32.870Z,100194.07
2019-03-05T22:10:07.659Z,100200.28
2019-03-05T22:12:39.354Z,100202.44
2019-03-05T22:15:27.008Z,100199.99
2019-03-05T22:17:58.670Z,100213.72
2019-03-05T22:20:31.389Z,100217.36
2019-03-05T22:23:03.340Z,100216.80
2019-03-05T22:25:35.087Z,100230.27
2019-03-05T22:28:07.281Z,100227.98
2019-03-05T22:30:40.068Z,100236.28
2019-03-05T22:33:13.598Z,100232.31
2019-03-05T22:35:45.331Z,100238.17
2019-03-05T22:38:17.059Z,100239.38
2019-03-05T22:40:48.769Z,100243.96
2019-03-05T22:43:22.380Z,100248.89
2019-03-05T22:45:54.201Z,100255.96
2019-03-05T22:48:25.870Z,100260.30
2019-03-05T22:50:57.600Z,100252.33
2019-03-05T22:53:40.559Z,100258.25
2019-03-05T22:59:33.047Z,100274.02
2019-03-05T23:02:05.351Z,100284.23
2019-03-05T23:04:45.096Z,100287.79
2019-03-05T23:07:17.013Z,100285.77
2019-03-05T23:09:49.548Z,100289.52
2019-03-05T23:12:21.586Z,100296.52
2019-03-05T23:14:55.902Z,100299.66
2019-03-05T23:17:30.916Z,100303.26
2019-03-05T23:20:02.737Z,100302.81
2019-03-05T23:22:34.975Z,100310.22
2019-03-05T23:25:09.269Z,100311.96
2019-03-05T23:27:41.752Z,100312.97
2019-03-05T23:30:19.573Z,100316.81
2019-03-05T23:32:57.267Z,100325.75
2019-03-05T23:35:28.977Z,100326.09
2019-03-05T23:38:01.468Z,100332.23
2019-03-05T23:40:34.864Z,100334.27
2019-03-05T23:43:06.545Z,100333.07
2019-03-05T23:45:38.287Z,100338.17
2019-03-05T23:48:10.786Z,100338.41
2019-03-05T23:50:43.129Z,100341.03
2019-03-05T23:53:15.462Z,100341.11
2019-03-05T23:55:47.054Z,100342.59
2019-03-05T23:58:18.666Z,100349.55
